sensor_id;sensor_type;location;lat;lon;timestamp;P1;durP1;ratioP1;P2;durP2;ratioP2
2035;SDS011;23642;42.658;23.350;2023-01-04T00:01:40;94.00;;;87.40;;
2035;SDS011;23642;42.658;23.350;2023-01-04T00:04:18;95.33;;;88.50;;
2035;SDS011;23642;42.658;23.350;2023-01-04T00:13:04;95.60;;;89.00;;
2035;SDS011;23642;42.658;23.350;2023-01-04T00:15:34;94.40;;;87.47;;
2035;SDS011;23642;42.658;23.350;2023-01-04T00:18:11;95.73;;;88.93;;
2035;SDS011;23642;42.658;23.350;2023-01-04T00:20:48;95.83;;;89.00;;
2035;SDS011;23642;42.658;23.350;2023-01-04T00:23:42;93.40;;;86.87;;
2035;SDS011;23642;42.658;23.350;2023-01-04T00:26:15;93.63;;;87.03;;
2035;SDS011;23642;42.658;23.350;2023-01-04T00:29:00;95.30;;;88.30;;
2035;SDS011;23642;42.658;23.350;2023-01-04T00:31:46;94.60;;;88.10;;
2035;SDS011;23642;42.658;23.350;2023-01-04T00:34:32;94.60;;;87.90;;
2035;SDS011;23642;42.658;23.350;2023-01-04T00:37:03;92.70;;;86.23;;
2035;SDS011;23642;42.658;23.350;2023-01-04T00:39:35;91.40;;;85.10;;
2035;SDS011;23642;42.658;23.350;2023-01-04T00:42:07;94.90;;;88.30;;
2035;SDS011;23642;42.658;23.350;2023-01-04T00:44:34;93.27;;;86.40;;
2035;SDS011;23642;42.658;23.350;2023-01-04T00:47:05;95.13;;;87.83;;
2035;SDS011;23642;42.658;23.350;2023-01-04T00:49:36;94.60;;;87.90;;
2035;SDS011;23642;42.658;23.350;2023-01-04T00:52:05;92.30;;;85.90;;
2035;SDS011;23642;42.658;23.350;2023-01-04T00:54:34;95.73;;;88.97;;
2035;SDS011;23642;42.658;23.350;2023-01-04T00:57:01;92.23;;;85.80;;
2035;SDS011;23642;42.658;23.350;2023-01-04T00:59:41;93.93;;;87.47;;
2035;SDS011;23642;42.658;23.350;2023-01-04T01:02:13;96.03;;;89.33;;
2035;SDS011;23642;42.658;23.350;2023-01-04T01:04:41;94.77;;;88.20;;
2035;SDS011;23642;42.658;23.350;2023-01-04T01:07:09;93.83;;;87.23;;
2035;SDS011;23642;42.658;23.350;2023-01-04T01:09:36;94.67;;;88.10;;
2035;SDS011;23642;42.658;23.350;2023-01-04T01:12:03;93.63;;;87.03;;
2035;SDS011;23642;42.658;23.350;2023-01-04T01:14:30;95.50;;;88.50;;
2035;SDS011;23642;42.658;23.350;2023-01-04T01:16:57;94.23;;;87.83;;
2035;SDS011;23642;42.658;23.350;2023-01-04T01:19:24;94.00;;;87.20;;
2035;SDS011;23642;42.658;23.350;2023-01-04T01:21:52;96.20;;;89.50;;
2035;SDS011;23642;42.658;23.350;2023-01-04T01:24:22;95.10;;;88.50;;
2035;SDS011;23642;42.658;23.350;2023-01-04T01:26:49;92.17;;;85.70;;
2035;SDS011;23642;42.658;23.350;2023-01-04T01:29:16;94.93;;;88.40;;
2035;SDS011;23642;42.658;23.350;2023-01-04T01:31:43;94.27;;;87.57;;
2035;SDS011;23642;42.658;23.350;2023-01-04T01:34:10;95.77;;;88.87;;
2035;SDS011;23642;42.658;23.350;2023-01-04T01:36:39;94.03;;;87.33;;
2035;SDS011;23642;42.658;23.350;2023-01-04T01:39:06;93.63;;;86.83;;
2035;SDS011;23642;42.658;23.350;2023-01-04T01:41:35;92.63;;;86.13;;
2035;SDS011;23642;42.658;23.350;2023-01-04T01:44:03;93.13;;;86.23;;
2035;SDS011;23642;42.658;23.350;2023-01-04T01:46:33;93.77;;;86.73;;
2035;SDS011;23642;42.658;23.350;2023-01-04T01:49:04;94.60;;;88.00;;
2035;SDS011;23642;42.658;23.350;2023-01-04T01:51:46;92.73;;;86.23;;
2035;SDS011;23642;42.658;23.350;2023-01-04T01:54:14;94.07;;;87.10;;
2035;SDS011;23642;42.658;23.350;2023-01-04T01:56:47;91.87;;;85.10;;
2035;SDS011;23642;42.658;23.350;2023-01-04T01:59:17;95.33;;;88.43;;
2035;SDS011;23642;42.658;23.350;2023-01-04T02:01:45;94.50;;;87.60;;
2035;SDS011;23642;42.658;23.350;2023-01-04T02:04:13;96.00;;;88.90;;
2035;SDS011;23642;42.658;23.350;2023-01-04T02:06:41;95.70;;;88.67;;
2035;SDS011;23642;42.658;23.350;2023-01-04T02:09:12;95.30;;;88.23;;
2035;SDS011;23642;42.658;23.350;2023-01-04T02:11:39;95.60;;;88.47;;
2035;SDS011;23642;42.658;23.350;2023-01-04T02:14:07;93.40;;;86.73;;
2035;SDS011;23642;42.658;23.350;2023-01-04T02:16:56;92.20;;;85.40;;
2035;SDS011;23642;42.658;23.350;2023-01-04T02:19:35;95.57;;;88.40;;
2035;SDS011;23642;42.658;23.350;2023-01-04T02:22:22;92.77;;;85.97;;
2035;SDS011;23642;42.658;23.350;2023-01-04T02:25:15;94.10;;;87.43;;
2035;SDS011;23642;42.658;23.350;2023-01-04T02:28:08;92.80;;;86.07;;
2035;SDS011;23642;42.658;23.350;2023-01-04T02:30:59;91.47;;;85.07;;
2035;SDS011;23642;42.658;23.350;2023-01-04T02:33:42;92.10;;;85.40;;
2035;SDS011;23642;42.658;23.350;2023-01-04T02:36:16;93.53;;;86.93;;
2035;SDS011;23642;42.658;23.350;2023-01-04T02:38:56;89.97;;;83.47;;
2035;SDS011;23642;42.658;23.350;2023-01-04T02:41:36;94.60;;;87.77;;
2035;SDS011;23642;42.658;23.350;2023-01-04T02:44:10;92.57;;;85.87;;
2035;SDS011;23642;42.658;23.350;2023-01-04T02:47:00;91.77;;;85.17;;
2035;SDS011;23642;42.658;23.350;2023-01-04T02:49:30;95.03;;;87.93;;
2035;SDS011;23642;42.658;23.350;2023-01-04T02:52:14;91.43;;;84.60;;
2035;SDS011;23642;42.658;23.350;2023-01-04T02:54:41;91.07;;;84.27;;
2035;SDS011;23642;42.658;23.350;2023-01-04T03:00:11;93.50;;;86.77;;
2035;SDS011;23642;42.658;23.350;2023-01-04T03:02:53;92.80;;;85.50;;
2035;SDS011;23642;42.658;23.350;2023-01-04T03:05:49;90.37;;;83.67;;
2035;SDS011;23642;42.658;23.350;2023-01-04T03:08:42;92.77;;;85.67;;
2035;SDS011;23642;42.658;23.350;2023-01-04T03:11:15;91.57;;;84.63;;
2035;SDS011;23642;42.658;23.350;2023-01-04T03:14:01;89.70;;;83.03;;
2035;SDS011;23642;42.658;23.350;2023-01-04T03:16:32;90.70;;;84.20;;
2035;SDS011;23642;42.658;23.350;2023-01-04T03:19:04;90.10;;;83.60;;
2035;SDS011;23642;42.658;23.350;2023-01-04T03:21:34;92.00;;;85.40;;
2035;SDS011;23642;42.658;23.350;2023-01-04T03:24:03;89.90;;;83.20;;
2035;SDS011;23642;42.658;23.350;2023-01-04T03:26:50;90.87;;;84.27;;
2035;SDS011;23642;42.658;23.350;2023-01-04T03:29:40;90.17;;;83.70;;
2035;SDS011;23642;42.658;23.350;2023-01-04T03:32:30;92.00;;;84.80;;
2035;SDS011;23642;42.658;23.350;2023-01-04T03:35:23;92.30;;;85.40;;
2035;SDS011;23642;42.658;23.350;2023-01-04T03:41:24;91.33;;;84.80;;
2035;SDS011;23642;42.658;23.350;2023-01-04T03:44:15;93.13;;;86.17;;
2035;SDS011;23642;42.658;23.350;2023-01-04T03:47:08;90.23;;;83.63;;
2035;SDS011;23642;42.658;23.350;2023-01-04T03:50:01;90.53;;;83.83;;
2035;SDS011;23642;42.658;23.350;2023-01-04T03:52:36;90.90;;;84.23;;
2035;SDS011;23642;42.658;23.350;2023-01-04T03:55:07;88.50;;;81.70;;
2035;SDS011;23642;42.658;23.350;2023-01-04T03:57:36;91.30;;;84.53;;
2035;SDS011;23642;42.658;23.350;2023-01-04T04:00:06;90.97;;;84.33;;
2035;SDS011;23642;42.658;23.350;2023-01-04T04:02:36;88.67;;;82.27;;
2035;SDS011;23642;42.658;23.350;2023-01-04T04:05:05;90.93;;;83.77;;
2035;SDS011;23642;42.658;23.350;2023-01-04T04:07:52;92.27;;;85.43;;
2035;SDS011;23642;42.658;23.350;2023-01-04T04:10:36;92.73;;;85.73;;
2035;SDS011;23642;42.658;23.350;2023-01-04T04:13:02;90.70;;;83.90;;
2035;SDS011;23642;42.658;23.350;2023-01-04T04:15:29;93.60;;;86.70;;
2035;SDS011;23642;42.658;23.350;2023-01-04T04:17:56;93.83;;;86.93;;
2035;SDS011;23642;42.658;23.350;2023-01-04T04:20:23;93.27;;;86.33;;
2035;SDS011;23642;42.658;23.350;2023-01-04T04:22:50;94.03;;;87.03;;
2035;SDS011;23642;42.658;23.350;2023-01-04T04:25:18;94.13;;;87.07;;
2035;SDS011;23642;42.658;23.350;2023-01-04T04:27:45;92.77;;;85.83;;
2035;SDS011;23642;42.658;23.350;2023-01-04T04:30:12;93.80;;;87.00;;
2035;SDS011;23642;42.658;23.350;2023-01-04T04:32:39;94.10;;;87.20;;
2035;SDS011;23642;42.658;23.350;2023-01-04T04:35:06;96.40;;;89.13;;
2035;SDS011;23642;42.658;23.350;2023-01-04T04:37:33;94.33;;;87.40;;
2035;SDS011;23642;42.658;23.350;2023-01-04T04:40:02;94.23;;;87.43;;
2035;SDS011;23642;42.658;23.350;2023-01-04T04:42:30;94.53;;;87.63;;
2035;SDS011;23642;42.658;23.350;2023-01-04T04:44:55;96.40;;;89.10;;
2035;SDS011;23642;42.658;23.350;2023-01-04T04:47:22;98.43;;;91.10;;
2035;SDS011;23642;42.658;23.350;2023-01-04T04:49:49;95.80;;;88.50;;
2035;SDS011;23642;42.658;23.350;2023-01-04T04:52:16;95.13;;;88.20;;
2035;SDS011;23642;42.658;23.350;2023-01-04T04:54:43;95.30;;;88.53;;
2035;SDS011;23642;42.658;23.350;2023-01-04T04:57:11;96.40;;;89.03;;
2035;SDS011;23642;42.658;23.350;2023-01-04T04:59:38;96.83;;;89.00;;
2035;SDS011;23642;42.658;23.350;2023-01-04T05:02:05;97.80;;;90.70;;
2035;SDS011;23642;42.658;23.350;2023-01-04T05:04:31;98.80;;;91.60;;
2035;SDS011;23642;42.658;23.350;2023-01-04T05:07:01;96.97;;;89.30;;
2035;SDS011;23642;42.658;23.350;2023-01-04T05:09:28;94.20;;;87.20;;
2035;SDS011;23642;42.658;23.350;2023-01-04T05:11:55;97.00;;;89.67;;
2035;SDS011;23642;42.658;23.350;2023-01-04T05:14:41;98.90;;;91.80;;
2035;SDS011;23642;42.658;23.350;2023-01-04T05:17:08;99.70;;;92.30;;
2035;SDS011;23642;42.658;23.350;2023-01-04T05:19:35;96.77;;;89.30;;
2035;SDS011;23642;42.658;23.350;2023-01-04T05:22:01;99.77;;;91.77;;
2035;SDS011;23642;42.658;23.350;2023-01-04T05:24:28;99.10;;;91.87;;
2035;SDS011;23642;42.658;23.350;2023-01-04T05:26:58;97.23;;;90.23;;
2035;SDS011;23642;42.658;23.350;2023-01-04T05:29:25;98.20;;;90.93;;
2035;SDS011;23642;42.658;23.350;2023-01-04T05:32:12;98.50;;;90.93;;
2035;SDS011;23642;42.658;23.350;2023-01-04T05:34:39;97.37;;;89.97;;
2035;SDS011;23642;42.658;23.350;2023-01-04T05:37:09;100.07;;;92.67;;
2035;SDS011;23642;42.658;23.350;2023-01-04T05:39:36;102.27;;;94.07;;
2035;SDS011;23642;42.658;23.350;2023-01-04T05:42:04;100.37;;;92.73;;
2035;SDS011;23642;42.658;23.350;2023-01-04T05:44:49;99.60;;;92.50;;
2035;SDS011;23642;42.658;23.350;2023-01-04T05:47:19;100.37;;;92.87;;
2035;SDS011;23642;42.658;23.350;2023-01-04T05:49:49;99.87;;;92.37;;
2035;SDS011;23642;42.658;23.350;2023-01-04T05:52:19;98.10;;;90.93;;
2035;SDS011;23642;42.658;23.350;2023-01-04T05:54:46;98.00;;;90.90;;
2035;SDS011;23642;42.658;23.350;2023-01-04T05:57:13;101.07;;;93.57;;
2035;SDS011;23642;42.658;23.350;2023-01-04T05:59:40;101.20;;;93.77;;
2035;SDS011;23642;42.658;23.350;2023-01-04T06:02:12;99.67;;;92.50;;
2035;SDS011;23642;42.658;23.350;2023-01-04T06:04:43;98.30;;;91.40;;
2035;SDS011;23642;42.658;23.350;2023-01-04T06:07:11;101.13;;;93.83;;
2035;SDS011;23642;42.658;23.350;2023-01-04T06:09:38;100.10;;;92.57;;
2035;SDS011;23642;42.658;23.350;2023-01-04T06:12:05;100.10;;;92.53;;
2035;SDS011;23642;42.658;23.350;2023-01-04T06:14:32;102.90;;;94.90;;
2035;SDS011;23642;42.658;23.350;2023-01-04T06:16:59;101.07;;;93.77;;
2035;SDS011;23642;42.658;23.350;2023-01-04T06:19:28;102.70;;;95.50;;
2035;SDS011;23642;42.658;23.350;2023-01-04T06:21:57;101.57;;;94.17;;
2035;SDS011;23642;42.658;23.350;2023-01-04T06:24:23;100.07;;;92.57;;
2035;SDS011;23642;42.658;23.350;2023-01-04T06:26:50;100.93;;;93.70;;
2035;SDS011;23642;42.658;23.350;2023-01-04T06:29:20;99.50;;;92.27;;
2035;SDS011;23642;42.658;23.350;2023-01-04T06:31:53;101.27;;;94.07;;
2035;SDS011;23642;42.658;23.350;2023-01-04T06:34:21;103.03;;;95.63;;
2035;SDS011;23642;42.658;23.350;2023-01-04T06:36:48;99.40;;;92.00;;
2035;SDS011;23642;42.658;23.350;2023-01-04T06:39:18;102.20;;;94.80;;
2035;SDS011;23642;42.658;23.350;2023-01-04T06:41:45;100.00;;;92.90;;
2035;SDS011;23642;42.658;23.350;2023-01-04T06:44:12;98.10;;;90.90;;
2035;SDS011;23642;42.658;23.350;2023-01-04T06:46:40;100.20;;;93.10;;
2035;SDS011;23642;42.658;23.350;2023-01-04T06:49:08;98.43;;;91.47;;
2035;SDS011;23642;42.658;23.350;2023-01-04T06:51:35;100.33;;;92.93;;
2035;SDS011;23642;42.658;23.350;2023-01-04T06:54:02;100.37;;;93.00;;
2035;SDS011;23642;42.658;23.350;2023-01-04T06:56:32;105.13;;;97.73;;
2035;SDS011;23642;42.658;23.350;2023-01-04T06:59:00;102.13;;;94.73;;
2035;SDS011;23642;42.658;23.350;2023-01-04T07:01:29;103.37;;;95.90;;
2035;SDS011;23642;42.658;23.350;2023-01-04T07:03:56;103.00;;;95.33;;
2035;SDS011;23642;42.658;23.350;2023-01-04T07:06:23;102.90;;;95.70;;
2035;SDS011;23642;42.658;23.350;2023-01-04T07:08:50;103.40;;;96.13;;
2035;SDS011;23642;42.658;23.350;2023-01-04T07:11:16;102.70;;;95.40;;
2035;SDS011;23642;42.658;23.350;2023-01-04T07:13:45;102.70;;;95.30;;
2035;SDS011;23642;42.658;23.350;2023-01-04T07:16:11;101.50;;;94.23;;
2035;SDS011;23642;42.658;23.350;2023-01-04T07:18:38;103.80;;;96.10;;
2035;SDS011;23642;42.658;23.350;2023-01-04T07:21:05;104.07;;;96.43;;
2035;SDS011;23642;42.658;23.350;2023-01-04T07:23:34;103.97;;;96.57;;
2035;SDS011;23642;42.658;23.350;2023-01-04T07:26:01;99.97;;;92.67;;
2035;SDS011;23642;42.658;23.350;2023-01-04T07:28:31;103.87;;;96.37;;
2035;SDS011;23642;42.658;23.350;2023-01-04T07:31:18;105.23;;;97.63;;
2035;SDS011;23642;42.658;23.350;2023-01-04T07:33:53;102.25;;;94.95;;
2035;SDS011;23642;42.658;23.350;2023-01-04T07:36:27;100.80;;;93.60;;
2035;SDS011;23642;42.658;23.350;2023-01-04T07:38:59;103.20;;;95.60;;
2035;SDS011;23642;42.658;23.350;2023-01-04T07:41:50;101.53;;;94.10;;
2035;SDS011;23642;42.658;23.350;2023-01-04T07:44:22;100.40;;;93.30;;
2035;SDS011;23642;42.658;23.350;2023-01-04T07:46:59;101.73;;;94.20;;
2035;SDS011;23642;42.658;23.350;2023-01-04T07:49:26;99.90;;;92.47;;
2035;SDS011;23642;42.658;23.350;2023-01-04T07:51:59;102.30;;;94.80;;
2035;SDS011;23642;42.658;23.350;2023-01-04T07:54:42;102.60;;;95.30;;
2035;SDS011;23642;42.658;23.350;2023-01-04T07:57:12;106.10;;;98.30;;
2035;SDS011;23642;42.658;23.350;2023-01-04T07:59:46;102.57;;;95.10;;
2035;SDS011;23642;42.658;23.350;2023-01-04T08:02:56;104.70;;;97.07;;
2035;SDS011;23642;42.658;23.350;2023-01-04T08:05:47;104.13;;;96.23;;
2035;SDS011;23642;42.658;23.350;2023-01-04T08:08:45;102.90;;;95.60;;
2035;SDS011;23642;42.658;23.350;2023-01-04T08:11:18;103.90;;;96.40;;
2035;SDS011;23642;42.658;23.350;2023-01-04T08:17:14;102.13;;;94.80;;
2035;SDS011;23642;42.658;23.350;2023-01-04T08:19:59;102.50;;;95.27;;
2035;SDS011;23642;42.658;23.350;2023-01-04T08:23:14;103.67;;;95.80;;
2035;SDS011;23642;42.658;23.350;2023-01-04T08:26:26;103.90;;;96.50;;
2035;SDS011;23642;42.658;23.350;2023-01-04T08:29:34;105.03;;;97.47;;
2035;SDS011;23642;42.658;23.350;2023-01-04T08:32:21;102.37;;;95.10;;
2035;SDS011;23642;42.658;23.350;2023-01-04T08:34:52;103.43;;;96.20;;
2035;SDS011;23642;42.658;23.350;2023-01-04T08:37:29;103.87;;;96.57;;
2035;SDS011;23642;42.658;23.350;2023-01-04T08:40:06;103.60;;;96.27;;
2035;SDS011;23642;42.658;23.350;2023-01-04T08:42:34;102.53;;;95.17;;
2035;SDS011;23642;42.658;23.350;2023-01-04T08:45:02;102.53;;;94.85;;
2035;SDS011;23642;42.658;23.350;2023-01-04T08:47:30;103.23;;;95.60;;
2035;SDS011;23642;42.658;23.350;2023-01-04T08:49:59;102.90;;;95.40;;
2035;SDS011;23642;42.658;23.350;2023-01-04T08:52:26;101.60;;;93.93;;
2035;SDS011;23642;42.658;23.350;2023-01-04T08:54:53;101.93;;;94.63;;
2035;SDS011;23642;42.658;23.350;2023-01-04T08:57:26;103.57;;;96.00;;
2035;SDS011;23642;42.658;23.350;2023-01-04T08:59:53;104.60;;;97.00;;
2035;SDS011;23642;42.658;23.350;2023-01-04T09:02:20;100.33;;;92.93;;
2035;SDS011;23642;42.658;23.350;2023-01-04T09:04:48;102.67;;;95.27;;
2035;SDS011;23642;42.658;23.350;2023-01-04T09:07:19;99.57;;;92.30;;
2035;SDS011;23642;42.658;23.350;2023-01-04T09:10:01;101.93;;;94.23;;
2035;SDS011;23642;42.658;23.350;2023-01-04T09:12:27;100.77;;;93.50;;
2035;SDS011;23642;42.658;23.350;2023-01-04T09:14:56;101.17;;;93.87;;
2035;SDS011;23642;42.658;23.350;2023-01-04T09:17:23;103.33;;;95.53;;
2035;SDS011;23642;42.658;23.350;2023-01-04T09:19:52;102.33;;;94.53;;
2035;SDS011;23642;42.658;23.350;2023-01-04T09:22:20;102.40;;;94.80;;
2035;SDS011;23642;42.658;23.350;2023-01-04T09:24:47;101.90;;;94.00;;
2035;SDS011;23642;42.658;23.350;2023-01-04T09:27:16;103.87;;;96.00;;
2035;SDS011;23642;42.658;23.350;2023-01-04T09:29:43;104.10;;;96.60;;
2035;SDS011;23642;42.658;23.350;2023-01-04T09:32:10;103.40;;;96.00;;
2035;SDS011;23642;42.658;23.350;2023-01-04T09:34:38;102.70;;;95.23;;
2035;SDS011;23642;42.658;23.350;2023-01-04T09:37:05;104.00;;;96.43;;
2035;SDS011;23642;42.658;23.350;2023-01-04T09:39:33;99.87;;;92.53;;
2035;SDS011;23642;42.658;23.350;2023-01-04T09:42:13;101.27;;;93.97;;
2035;SDS011;23642;42.658;23.350;2023-01-04T09:44:44;102.63;;;94.67;;
2035;SDS011;23642;42.658;23.350;2023-01-04T09:47:36;103.97;;;96.37;;
2035;SDS011;23642;42.658;23.350;2023-01-04T09:50:20;101.47;;;94.17;;
2035;SDS011;23642;42.658;23.350;2023-01-04T09:54:34;101.47;;;94.10;;
2035;SDS011;23642;42.658;23.350;2023-01-04T09:56:22;103.70;;;96.17;;
2035;SDS011;23642;42.658;23.350;2023-01-04T09:59:06;101.35;;;93.95;;
2035;SDS011;23642;42.658;23.350;2023-01-04T10:02:07;102.25;;;95.07;;
2035;SDS011;23642;42.658;23.350;2023-01-04T10:04:51;100.50;;;92.83;;
2035;SDS011;23642;42.658;23.350;2023-01-04T10:07:26;101.23;;;94.00;;
2035;SDS011;23642;42.658;23.350;2023-01-04T10:10:01;101.33;;;93.70;;
2035;SDS011;23642;42.658;23.350;2023-01-04T10:12:44;100.33;;;93.03;;
2035;SDS011;23642;42.658;23.350;2023-01-04T10:15:54;100.20;;;92.77;;
2035;SDS011;23642;42.658;23.350;2023-01-04T10:18:35;101.90;;;94.40;;
2035;SDS011;23642;42.658;23.350;2023-01-04T10:21:26;101.10;;;93.83;;
2035;SDS011;23642;42.658;23.350;2023-01-04T10:24:22;102.43;;;94.73;;
2035;SDS011;23642;42.658;23.350;2023-01-04T10:27:04;102.77;;;95.17;;
2035;SDS011;23642;42.658;23.350;2023-01-04T10:29:46;102.80;;;95.20;;
2035;SDS011;23642;42.658;23.350;2023-01-04T10:32:35;101.13;;;93.83;;
2035;SDS011;23642;42.658;23.350;2023-01-04T10:35:15;98.83;;;91.67;;
2035;SDS011;23642;42.658;23.350;2023-01-04T10:38:13;103.73;;;96.13;;
2035;SDS011;23642;42.658;23.350;2023-01-04T10:40:45;102.03;;;94.63;;
2035;SDS011;23642;42.658;23.350;2023-01-04T10:43:16;101.95;;;94.45;;
2035;SDS011;23642;42.658;23.350;2023-01-04T10:46:04;101.33;;;93.90;;
2035;SDS011;23642;42.658;23.350;2023-01-04T10:48:45;103.13;;;95.63;;
2035;SDS011;23642;42.658;23.350;2023-01-04T10:51:19;104.07;;;96.33;;
2035;SDS011;23642;42.658;23.350;2023-01-04T10:53:52;103.40;;;95.80;;
2035;SDS011;23642;42.658;23.350;2023-01-04T10:56:24;100.13;;;91.77;;
2035;SDS011;23642;42.658;23.350;2023-01-04T10:58:58;103.00;;;95.27;;
2035;SDS011;23642;42.658;23.350;2023-01-04T11:01:41;101.00;;;93.57;;
2035;SDS011;23642;42.658;23.350;2023-01-04T11:04:24;100.60;;;93.30;;
2035;SDS011;23642;42.658;23.350;2023-01-04T11:07:06;102.23;;;94.73;;
2035;SDS011;23642;42.658;23.350;2023-01-04T11:10:02;103.53;;;96.13;;
2035;SDS011;23642;42.658;23.350;2023-01-04T11:12:33;103.40;;;95.53;;
2035;SDS011;23642;42.658;23.350;2023-01-04T11:15:05;105.77;;;98.10;;
2035;SDS011;23642;42.658;23.350;2023-01-04T11:17:48;103.90;;;96.30;;
2035;SDS011;23642;42.658;23.350;2023-01-04T11:20:18;103.27;;;95.80;;
2035;SDS011;23642;42.658;23.350;2023-01-04T11:23:04;102.80;;;95.27;;
2035;SDS011;23642;42.658;23.350;2023-01-04T11:25:38;101.73;;;94.63;;
2035;SDS011;23642;42.658;23.350;2023-01-04T11:28:12;101.63;;;94.43;;
2035;SDS011;23642;42.658;23.350;2023-01-04T11:30:50;100.43;;;93.27;;
2035;SDS011;23642;42.658;23.350;2023-01-04T11:36:36;97.70;;;90.70;;
2035;SDS011;23642;42.658;23.350;2023-01-04T11:39:24;98.57;;;91.50;;
2035;SDS011;23642;42.658;23.350;2023-01-04T11:42:04;99.80;;;92.50;;
2035;SDS011;23642;42.658;23.350;2023-01-04T11:44:58;99.80;;;92.23;;
2035;SDS011;23642;42.658;23.350;2023-01-04T11:47:25;98.53;;;91.43;;
2035;SDS011;23642;42.658;23.350;2023-01-04T11:49:55;96.23;;;89.33;;
2035;SDS011;23642;42.658;23.350;2023-01-04T11:52:28;101.40;;;94.00;;
2035;SDS011;23642;42.658;23.350;2023-01-04T11:55:01;96.67;;;89.77;;
2035;SDS011;23642;42.658;23.350;2023-01-04T11:57:43;96.73;;;89.53;;
2035;SDS011;23642;42.658;23.350;2023-01-04T12:00:12;96.03;;;89.10;;
2035;SDS011;23642;42.658;23.350;2023-01-04T12:02:42;98.20;;;91.17;;
2035;SDS011;23642;42.658;23.350;2023-01-04T12:05:17;96.40;;;89.30;;
2035;SDS011;23642;42.658;23.350;2023-01-04T12:07:45;96.00;;;88.93;;
2035;SDS011;23642;42.658;23.350;2023-01-04T12:10:19;97.60;;;90.60;;
2035;SDS011;23642;42.658;23.350;2023-01-04T12:12:50;99.17;;;91.93;;
2035;SDS011;23642;42.658;23.350;2023-01-04T12:15:20;99.67;;;92.40;;
2035;SDS011;23642;42.658;23.350;2023-01-04T12:17:54;99.80;;;92.70;;
2035;SDS011;23642;42.658;23.350;2023-01-04T12:20:28;98.10;;;91.10;;
2035;SDS011;23642;42.658;23.350;2023-01-04T12:22:55;96.93;;;90.03;;
2035;SDS011;23642;42.658;23.350;2023-01-04T12:25:26;96.67;;;89.90;;
2035;SDS011;23642;42.658;23.350;2023-01-04T12:27:57;96.47;;;89.63;;
2035;SDS011;23642;42.658;23.350;2023-01-04T12:30:34;95.67;;;88.57;;
2035;SDS011;23642;42.658;23.350;2023-01-04T12:36:14;99.53;;;92.43;;
2035;SDS011;23642;42.658;23.350;2023-01-04T12:42:17;98.07;;;91.17;;
2035;SDS011;23642;42.658;23.350;2023-01-04T12:45:11;99.20;;;91.93;;
2035;SDS011;23642;42.658;23.350;2023-01-04T12:47:46;99.00;;;92.10;;
2035;SDS011;23642;42.658;23.350;2023-01-04T12:50:31;95.87;;;88.97;;
2035;SDS011;23642;42.658;23.350;2023-01-04T12:53:01;100.47;;;93.30;;
2035;SDS011;23642;42.658;23.350;2023-01-04T12:58:39;101.57;;;94.07;;
2035;SDS011;23642;42.658;23.350;2023-01-04T13:01:39;96.07;;;89.27;;
2035;SDS011;23642;42.658;23.350;2023-01-04T13:04:37;98.40;;;91.30;;
2035;SDS011;23642;42.658;23.350;2023-01-04T13:07:07;97.77;;;90.67;;
2035;SDS011;23642;42.658;23.350;2023-01-04T13:09:42;97.37;;;90.57;;
2035;SDS011;23642;42.658;23.350;2023-01-04T13:12:34;99.70;;;92.47;;
2035;SDS011;23642;42.658;23.350;2023-01-04T13:15:20;98.70;;;91.70;;
2035;SDS011;23642;42.658;23.350;2023-01-04T13:17:54;101.47;;;94.13;;
2035;SDS011;23642;42.658;23.350;2023-01-04T13:20:37;102.87;;;95.10;;
2035;SDS011;23642;42.658;23.350;2023-01-04T13:23:07;100.07;;;92.97;;
2035;SDS011;23642;42.658;23.350;2023-01-04T13:25:40;101.63;;;94.23;;
2035;SDS011;23642;42.658;23.350;2023-01-04T13:28:15;102.90;;;95.50;;
2035;SDS011;23642;42.658;23.350;2023-01-04T13:30:47;104.27;;;96.83;;
2035;SDS011;23642;42.658;23.350;2023-01-04T13:33:29;102.78;;;95.20;;
2035;SDS011;23642;42.658;23.350;2023-01-04T13:36:16;103.87;;;96.20;;
2035;SDS011;23642;42.658;23.350;2023-01-04T13:38:46;101.33;;;94.27;;
2035;SDS011;23642;42.658;23.350;2023-01-04T13:41:22;103.07;;;95.90;;
2035;SDS011;23642;42.658;23.350;2023-01-04T13:43:53;103.77;;;96.47;;
2035;SDS011;23642;42.658;23.350;2023-01-04T13:46:28;103.30;;;96.00;;
2035;SDS011;23642;42.658;23.350;2023-01-04T13:48:57;103.33;;;95.93;;
2035;SDS011;23642;42.658;23.350;2023-01-04T13:51:27;100.63;;;93.43;;
2035;SDS011;23642;42.658;23.350;2023-01-04T13:53:59;104.93;;;96.80;;
2035;SDS011;23642;42.658;23.350;2023-01-04T13:56:29;105.27;;;97.37;;
2035;SDS011;23642;42.658;23.350;2023-01-04T13:58:59;105.53;;;97.73;;
2035;SDS011;23642;42.658;23.350;2023-01-04T14:01:27;101.67;;;94.37;;
2035;SDS011;23642;42.658;23.350;2023-01-04T14:03:56;107.00;;;99.07;;
2035;SDS011;23642;42.658;23.350;2023-01-04T14:06:25;103.77;;;96.17;;
2035;SDS011;23642;42.658;23.350;2023-01-04T14:08:55;104.87;;;97.13;;
2035;SDS011;23642;42.658;23.350;2023-01-04T14:11:30;104.00;;;96.50;;
2035;SDS011;23642;42.658;23.350;2023-01-04T14:14:22;105.10;;;97.70;;
2035;SDS011;23642;42.658;23.350;2023-01-04T14:17:03;106.57;;;98.77;;
2035;SDS011;23642;42.658;23.350;2023-01-04T14:19:45;103.10;;;95.23;;
2035;SDS011;23642;42.658;23.350;2023-01-04T14:22:38;104.10;;;96.13;;
2035;SDS011;23642;42.658;23.350;2023-01-04T14:31:13;104.37;;;96.87;;
2035;SDS011;23642;42.658;23.350;2023-01-04T14:33:47;104.90;;;97.40;;
2035;SDS011;23642;42.658;23.350;2023-01-04T14:36:17;103.80;;;94.93;;
2035;SDS011;23642;42.658;23.350;2023-01-04T14:38:48;102.43;;;94.87;;
2035;SDS011;23642;42.658;23.350;2023-01-04T14:41:23;101.23;;;93.93;;
2035;SDS011;23642;42.658;23.350;2023-01-04T14:44:01;103.80;;;95.90;;
2035;SDS011;23642;42.658;23.350;2023-01-04T14:46:33;100.32;;;92.70;;
2035;SDS011;23642;42.658;23.350;2023-01-04T14:49:00;102.40;;;94.97;;
2035;SDS011;23642;42.658;23.350;2023-01-04T14:51:29;102.70;;;95.00;;
2035;SDS011;23642;42.658;23.350;2023-01-04T14:54:02;102.97;;;94.93;;
2035;SDS011;23642;42.658;23.350;2023-01-04T14:56:29;103.43;;;95.50;;
2035;SDS011;23642;42.658;23.350;2023-01-04T14:59:03;101.83;;;94.40;;
2035;SDS011;23642;42.658;23.350;2023-01-04T15:01:30;102.33;;;94.83;;
2035;SDS011;23642;42.658;23.350;2023-01-04T15:03:56;102.07;;;94.50;;
2035;SDS011;23642;42.658;23.350;2023-01-04T15:06:26;103.00;;;95.40;;
2035;SDS011;23642;42.658;23.350;2023-01-04T15:08:56;104.03;;;95.90;;
2035;SDS011;23642;42.658;23.350;2023-01-04T15:11:30;103.60;;;96.00;;
2035;SDS011;23642;42.658;23.350;2023-01-04T15:14:07;106.57;;;98.33;;
2035;SDS011;23642;42.658;23.350;2023-01-04T15:16:34;104.57;;;96.30;;
2035;SDS011;23642;42.658;23.350;2023-01-04T15:19:01;104.47;;;96.27;;
2035;SDS011;23642;42.658;23.350;2023-01-04T15:21:28;103.33;;;95.40;;
2035;SDS011;23642;42.658;23.350;2023-01-04T15:23:59;104.20;;;96.10;;
2035;SDS011;23642;42.658;23.350;2023-01-04T15:26:27;100.67;;;92.67;;
2035;SDS011;23642;42.658;23.350;2023-01-04T15:28:54;103.87;;;95.87;;
2035;SDS011;23642;42.658;23.350;2023-01-04T15:31:24;101.27;;;93.67;;
2035;SDS011;23642;42.658;23.350;2023-01-04T15:33:54;105.57;;;97.40;;